Minneola, Kansas
Current Conditions -  °F | °C
As of 7:00 AM on Thursday 18 Dec 2014 (Local Time) from KDDC Reporting Station
Moderate Fog Moderate Fog  
Wind Chill: 21°   Ceiling: 200
Heat Index: 28°   Visibility: 0.5mi
Dew Point: 26°   Wind: 7mph
Humidity: 92%   Direction: 50°NE
Pressure: 30.11"   Gusts: NA
Location:  37.44°N, 100.02°W
Report Text: KDDC 181300Z AUTO 05006KT 1/2SM FZFG VV002 M02/M03 A3011 RMK AO2 T10221033
Loading
Personal Weather Stations






























Interactive Weather Map New forecast layout! Learn more

10-Day Weather Forecast

Advertisements
Track Severe Weather on mobile